Time;durP1;ratioP1;P1;durP2;ratioP2;P2;SDS_P1;SDS_P2;PMS_P1;PMS_P2;Temp;Humidity;BMP_temperature;BMP_pressure;BME280_temperature;BME280_humidity;BME280_pressure;Samples;Min_cycle;Max_cycle;Signal;HPM_P1;HPM_P2
2021/10/19 00:01:50;;;;;;;2.80;1.77;;;;;;;15.61;78.73;99857.53;4989051;28;20050;-53
2021/10/19 00:04:17;;;;;;;2.63;1.63;;;;;;;15.56;78.96;99855.03;4987751;28;20425;-52
2021/10/19 00:06:44;;;;;;;3.17;2.15;;;;;;;15.54;79.06;99862.06;4993348;28;20054;-51
2021/10/19 00:09:11;;;;;;;2.63;1.95;;;;;;;15.49;79.20;99863.91;4984004;28;20514;-51
2021/10/19 00:11:37;;;;;;;2.22;1.50;;;;;;;15.45;79.19;99857.06;4991295;28;20061;-54
2021/10/19 00:14:04;;;;;;;3.38;2.15;;;;;;;15.45;78.41;99857.06;4990878;28;20085;-53
2021/10/19 00:16:31;;;;;;;2.72;2.22;;;;;;;15.42;79.21;99861.47;4990445;28;20069;-51
2021/10/19 00:18:57;;;;;;;2.38;1.80;;;;;;;15.42;79.42;99869.31;4988525;28;20058;-54
2021/10/19 00:21:24;;;;;;;2.92;1.88;;;;;;;15.44;79.25;99868.41;4986811;28;20046;-54
2021/10/19 00:23:51;;;;;;;2.28;1.40;;;;;;;15.44;79.31;99860.56;4991224;28;20063;-52
2021/10/19 00:26:18;;;;;;;4.20;1.95;;;;;;;15.45;79.02;99838.78;4994564;28;20050;-52
2021/10/19 00:28:45;;;;;;;2.72;1.75;;;;;;;15.45;79.31;99836.19;4995190;28;20054;-50
2021/10/19 00:31:11;;;;;;;3.45;2.88;;;;;;;15.46;79.69;99853.53;4995447;28;20042;-52
2021/10/19 00:33:38;;;;;;;5.00;2.08;;;;;;;15.46;79.45;99853.53;4993882;28;20058;-51
2021/10/19 00:36:05;;;;;;;2.90;1.92;;;;;;;15.45;79.12;99872.72;4995803;28;20046;-51
2021/10/19 00:38:31;;;;;;;2.83;1.77;;;;;;;15.45;78.87;99859.66;4989025;28;20058;-50
2021/10/19 00:40:58;;;;;;;2.80;1.85;;;;;;;15.46;79.35;99853.53;5001402;28;20750;-54
2021/10/19 00:43:26;;;;;;;3.63;2.20;;;;;;;15.44;79.56;99853.63;4997772;28;20080;-54
2021/10/19 00:45:54;;;;;;;5.03;2.08;;;;;;;15.47;79.25;99855.28;4996731;28;20046;-54
2021/10/19 00:48:25;;;;;;;5.10;2.92;;;;;;;15.46;79.63;99848.31;4995526;28;20108;-51
2021/10/19 00:50:53;;;;;;;8.32;3.38;;;;;;;15.48;79.09;99856.97;4993841;28;20564;-54
2021/10/19 00:53:19;;;;;;;4.25;2.53;;;;;;;15.51;79.43;99856.91;4999274;28;20127;-54
2021/10/19 00:55:47;;;;;;;3.55;1.88;;;;;;;15.50;79.60;99848.22;4993229;28;20127;-52
2021/10/19 00:58:13;;;;;;;3.85;2.45;;;;;;;15.53;79.66;99855.09;4996866;28;20093;-52
2021/10/19 01:00:40;;;;;;;6.25;2.90;;;;;;;15.55;79.10;99863.75;4994527;28;20046;-54
2021/10/19 01:03:07;;;;;;;5.25;2.38;;;;;;;15.56;79.01;99855.03;4990131;28;20061;-55
2021/10/19 01:05:34;;;;;;;6.47;3.17;;;;;;;15.58;79.66;99858.47;4993439;28;20104;-53
2021/10/19 01:08:02;;;;;;;6.68;3.13;;;;;;;15.59;79.31;99865.38;4992426;28;20064;-52
2021/10/19 01:10:29;;;;;;;7.60;3.55;;;;;;;15.61;79.48;99868.84;4992464;28;20054;-55
2021/10/19 01:12:56;;;;;;;7.38;3.28;;;;;;;15.63;79.34;99867.03;4990474;28;20097;-50
2021/10/19 01:15:23;;;;;;;7.65;3.35;;;;;;;15.66;79.04;99871.28;5006672;28;20050;-51
2021/10/19 01:17:51;;;;;;;6.43;3.50;;;;;;;15.67;79.23;99868.66;4989032;28;20403;-52
2021/10/19 01:20:28;;;;;;;6.07;3.10;;;;;;;15.64;79.07;99866.13;4993339;28;20104;-51
2021/10/19 01:22:57;;;;;;;5.90;3.53;;;;;;;15.68;79.44;99869.53;5005079;28;20490;-52
2021/10/19 01:25:25;;;;;;;6.15;3.20;;;;;;;15.66;78.84;99861.72;4991793;28;20077;-52
2021/10/19 01:27:55;;;;;;;7.43;3.90;;;;;;;15.68;79.05;99852.06;4992194;28;20391;-55
2021/10/19 01:30:22;;;;;;;6.53;3.90;;;;;;;15.66;79.57;99850.41;4989856;28;20733;-54
2021/10/19 01:32:49;;;;;;;6.47;3.30;;;;;;;15.63;79.25;99846.13;4991137;28;20092;-51
2021/10/19 01:35:16;;;;;;;6.03;3.25;;;;;;;15.63;79.14;99851.34;4995453;28;20054;-54
2021/10/19 01:37:43;;;;;;;7.38;3.40;;;;;;;15.61;78.91;99860.13;4993260;28;20046;-51
2021/10/19 01:40:13;;;;;;;9.77;4.93;;;;;;;15.61;79.30;99852.31;4995024;28;20049;-52
2021/10/19 01:42:40;;;;;;;9.77;4.20;;;;;;;15.63;78.95;99851.34;4988435;28;20097;-54
2021/10/19 01:45:13;;;;;;;11.55;4.32;;;;;;;15.60;79.08;99833.16;4996796;28;20050;-51
2021/10/19 01:47:40;;;;;;;7.70;4.30;;;;;;;15.60;79.28;99825.31;4993125;28;20097;-51
2021/10/19 01:50:08;;;;;;;8.65;3.47;;;;;;;15.60;79.59;99835.78;4994276;28;20050;-51
2021/10/19 01:52:35;;;;;;;8.57;3.92;;;;;;;15.62;79.47;99856.63;4997595;28;20083;-51
2021/10/19 01:55:04;;;;;;;8.27;4.20;;;;;;;15.62;79.36;99838.34;4990601;28;20112;-53
2021/10/19 01:57:31;;;;;;;8.90;4.53;;;;;;;15.63;79.63;99840.91;4995603;28;20084;-52
2021/10/19 01:59:58;;;;;;;10.43;4.63;;;;;;;15.63;79.32;99838.31;4989762;28;20108;-51
2021/10/19 02:02:26;;;;;;;10.38;4.90;;;;;;;15.63;78.96;99830.47;4989569;28;20050;-51
2021/10/19 02:04:53;;;;;;;11.38;5.03;;;;;;;15.67;78.99;99833.84;4994712;28;20045;-51
2021/10/19 02:07:21;;;;;;;10.93;5.60;;;;;;;15.66;79.11;99835.63;5001775;28;20602;-51
2021/10/19 02:09:47;;;;;;;9.27;4.93;;;;;;;15.68;79.82;99822.53;5001323;28;20046;-51
2021/10/19 02:12:14;;;;;;;9.88;4.45;;;;;;;15.67;79.63;99828.63;4991904;28;20471;-51
2021/10/19 02:14:41;;;;;;;8.45;4.45;;;;;;;15.68;79.04;99812.09;4999709;28;20046;-52
2021/10/19 02:17:07;;;;;;;10.90;4.78;;;;;;;15.67;79.00;99810.34;4990735;28;20911;-50
2021/10/19 02:19:34;;;;;;;10.15;5.03;;;;;;;15.67;79.24;99810.34;4997553;28;20458;-50
2021/10/19 02:22:00;;;;;;;8.80;4.72;;;;;;;15.64;79.33;99811.28;4995554;28;20046;-50
2021/10/19 02:24:27;;;;;;;8.70;4.40;;;;;;;15.65;78.60;99813.03;4998533;28;20113;-50
2021/10/19 02:26:54;;;;;;;11.70;5.45;;;;;;;15.64;79.82;99816.50;4996161;28;20081;-50
2021/10/19 02:29:21;;;;;;;12.40;5.13;;;;;;;15.64;79.16;99810.47;4990993;28;20062;-52
2021/10/19 02:31:47;;;;;;;10.13;4.75;;;;;;;15.63;79.43;99793.94;4995397;28;20371;-52
2021/10/19 02:34:16;;;;;;;9.65;4.45;;;;;;;15.63;78.79;99786.09;4992920;28;20042;-50
2021/10/19 02:36:43;;;;;;;8.65;3.35;;;;;;;15.65;79.01;99796.50;5001295;28;20050;-51
2021/10/19 02:39:10;;;;;;;9.38;4.38;;;;;;;15.63;79.18;99796.53;4997027;28;20061;-55
2021/10/19 02:41:38;;;;;;;10.85;5.05;;;;;;;15.61;79.50;99782.69;4990597;28;20109;-51
2021/10/19 02:44:05;;;;;;;10.13;4.00;;;;;;;15.60;79.15;99778.34;4993276;28;20042;-52
2021/10/19 02:46:32;;;;;;;12.63;5.00;;;;;;;15.60;79.44;99778.34;4991177;28;20087;-54
2021/10/19 02:48:59;;;;;;;10.52;4.47;;;;;;;15.59;79.55;99771.41;5003811;28;20479;-53
2021/10/19 02:51:26;;;;;;;14.63;5.70;;;;;;;15.60;79.69;99775.72;4990001;28;20093;-51
2021/10/19 02:53:54;;;;;;;9.55;3.95;;;;;;;15.61;79.61;99779.22;5000808;28;20039;-55
2021/10/19 02:56:21;;;;;;;8.82;4.45;;;;;;;15.59;79.82;99755.75;4996882;28;20103;-53
2021/10/19 02:58:49;;;;;;;9.05;4.13;;;;;;;15.59;79.35;99765.34;4994530;28;20042;-51
2021/10/19 03:01:16;;;;;;;11.82;4.50;;;;;;;15.58;78.70;99759.28;4988174;28;20108;-54
2021/10/19 03:03:43;;;;;;;9.95;4.07;;;;;;;15.59;79.39;99766.19;4991209;28;20055;-51
2021/10/19 03:06:09;;;;;;;9.13;4.93;;;;;;;15.60;79.00;99764.47;4991148;28;21025;-54
2021/10/19 03:08:36;;;;;;;9.18;4.18;;;;;;;15.60;79.22;99756.63;4991235;28;20548;-54
2021/10/19 03:11:03;;;;;;;11.60;4.65;;;;;;;15.61;79.36;99759.19;4997318;28;20096;-53
2021/10/19 03:13:34;;;;;;;8.63;3.85;;;;;;;15.58;79.54;99741.00;4992516;28;20045;-54
2021/10/19 03:16:13;;;;;;;7.15;3.80;;;;;;;15.61;79.93;99727.00;4988238;28;20133;-54
2021/10/19 03:18:39;;;;;;;7.55;3.47;;;;;;;15.62;79.66;99718.25;4998311;28;20049;-51
2021/10/19 03:21:06;;;;;;;7.93;3.72;;;;;;;15.59;80.24;99708.78;4992562;28;20096;-52
2021/10/19 03:23:33;;;;;;;6.97;3.35;;;;;;;15.61;79.80;99712.22;4997222;28;20046;-51
2021/10/19 03:26:00;;;;;;;10.00;4.07;;;;;;;15.63;79.81;99715.59;4994858;28;20046;-53
2021/10/19 03:28:26;;;;;;;7.15;3.45;;;;;;;15.65;80.12;99734.72;4988036;28;20046;-54
2021/10/19 03:30:53;;;;;;;8.55;3.85;;;;;;;15.67;79.74;99732.91;4996590;28;20112;-50
2021/10/19 03:33:19;;;;;;;10.40;4.85;;;;;;;15.67;79.73;99722.44;4987090;28;20058;-51
2021/10/19 03:35:46;;;;;;;13.43;5.47;;;;;;;15.71;79.92;99730.19;4999003;28;20057;-52
2021/10/19 03:38:13;;;;;;;11.30;4.63;;;;;;;15.71;79.51;99749.34;4988449;28;20085;-51
2021/10/19 03:40:40;;;;;;;12.13;5.60;;;;;;;15.73;80.10;99751.88;4996103;28;20054;-51
2021/10/19 03:43:06;;;;;;;9.98;3.42;;;;;;;15.76;80.31;99746.56;4985288;28;20049;-51
2021/10/19 03:45:33;;;;;;;8.32;3.78;;;;;;;15.78;80.08;99752.63;4992601;28;20050;-51
2021/10/19 03:48:00;;;;;;;9.10;3.70;;;;;;;15.79;79.79;99751.72;4988341;28;20506;-52
2021/10/19 03:50:26;;;;;;;10.70;4.07;;;;;;;15.79;80.12;99752.59;4993396;28;20058;-51
2021/10/19 03:52:57;;;;;;;13.00;5.43;;;;;;;15.80;80.19;99753.41;4997860;28;20046;-53
2021/10/19 03:55:24;;;;;;;7.65;3.17;;;;;;;15.80;80.17;99743.84;4987528;28;20117;-52
2021/10/19 03:57:51;;;;;;;9.10;2.80;;;;;;;15.81;80.67;99734.25;4991379;28;20058;-52
2021/10/19 04:00:18;;;;;;;9.98;3.05;;;;;;;15.83;80.27;99724.59;4992632;28;20583;-51
2021/10/19 04:02:44;;;;;;;6.10;2.70;;;;;;;15.82;80.78;99720.28;4999113;28;20481;-51
2021/10/19 04:05:12;;;;;;;5.35;2.53;;;;;;;15.83;80.50;99716.78;4991534;28;20050;-50
2021/10/19 04:07:45;;;;;;;5.45;2.15;;;;;;;15.85;81.07;99720.22;4996607;28;20053;-51
2021/10/19 04:10:13;;;;;;;10.05;2.17;;;;;;;15.87;80.54;99723.63;4993655;28;20057;-51
2021/10/19 04:12:40;;;;;;;4.07;1.45;;;;;;;15.88;81.12;99719.25;4987976;28;20046;-50
2021/10/19 04:15:07;;;;;;;4.13;1.83;;;;;;;15.88;81.31;99704.41;4986847;28;20065;-51
2021/10/19 04:17:34;;;;;;;4.30;1.83;;;;;;;15.89;80.91;99695.72;4994889;28;20061;-50
2021/10/19 04:20:01;;;;;;;4.20;1.55;;;;;;;15.91;81.25;99701.72;4991712;28;20104;-51
2021/10/19 04:22:27;;;;;;;3.92;1.52;;;;;;;15.91;81.66;99683.44;4991722;28;20073;-51
2021/10/19 04:24:54;;;;;;;3.42;1.42;;;;;;;15.92;81.38;99690.41;4988505;28;20049;-51
2021/10/19 04:27:22;;;;;;;6.70;1.80;;;;;;;15.93;81.89;99689.50;4990399;28;20050;-51
2021/10/19 04:29:48;;;;;;;4.30;1.42;;;;;;;15.98;81.55;99689.38;4988195;28;20174;-51
2021/10/19 04:32:15;;;;;;;4.38;1.45;;;;;;;16.00;81.72;99684.09;4997787;28;20525;-50
2021/10/19 04:34:42;;;;;;;3.85;1.95;;;;;;;16.01;81.12;99685.81;4992267;28;20054;-51
2021/10/19 04:37:09;;;;;;;4.50;1.42;;;;;;;16.02;81.77;99695.34;4996049;28;20491;-51
2021/10/19 04:39:35;;;;;;;6.03;1.83;;;;;;;16.01;82.10;99693.66;4988797;28;20105;-53
2021/10/19 04:42:03;;;;;;;5.00;1.92;;;;;;;16.02;81.97;99701.44;4989543;28;20109;-51
2021/10/19 04:44:30;;;;;;;4.97;1.85;;;;;;;16.04;82.26;99698.75;4991672;28;20101;-51
2021/10/19 04:46:57;;;;;;;4.15;1.75;;;;;;;16.05;81.49;99695.28;4990887;28;20446;-51
2021/10/19 04:49:24;;;;;;;5.20;2.22;;;;;;;16.05;81.67;99679.59;4998881;28;20120;-50
2021/10/19 04:51:50;;;;;;;5.95;2.00;;;;;;;16.08;81.70;99684.72;4988020;28;20038;-51
2021/10/19 04:54:17;;;;;;;5.13;2.38;;;;;;;16.10;81.85;99667.22;4992790;28;20050;-51
2021/10/19 04:56:43;;;;;;;5.65;1.75;;;;;;;16.11;81.50;99658.47;4992441;28;20050;-51
2021/10/19 04:59:10;;;;;;;7.03;1.80;;;;;;;16.11;82.22;99679.38;4993771;28;20207;-53
2021/10/19 05:01:37;;;;;;;6.20;1.98;;;;;;;16.14;81.79;99684.53;4990782;28;20470;-54
2021/10/19 05:04:04;;;;;;;7.20;2.17;;;;;;;16.16;81.83;99680.13;4988647;28;20062;-54
2021/10/19 05:06:30;;;;;;;5.82;1.85;;;;;;;16.16;81.69;99682.72;4999018;28;20630;-54
2021/10/19 05:08:57;;;;;;;5.93;2.10;;;;;;;16.18;81.59;99680.91;4989106;28;20038;-54
2021/10/19 05:11:23;;;;;;;4.40;1.88;;;;;;;16.22;81.62;99680.81;4992906;28;20062;-53
2021/10/19 05:13:50;;;;;;;3.25;1.90;;;;;;;16.22;81.76;99652.06;4994864;28;20051;-49
2021/10/19 05:16:16;;;;;;;4.47;2.10;;;;;;;16.21;82.10;99648.59;4991889;28;20046;-48
2021/10/19 05:18:43;;;;;;;5.93;2.58;;;;;;;16.25;82.03;99652.81;5002558;28;20045;-51
2021/10/19 05:21:10;;;;;;;4.97;1.77;;;;;;;16.27;81.64;99653.63;4992870;28;20568;-52
2021/10/19 05:23:36;;;;;;;5.40;2.50;;;;;;;16.29;82.23;99640.50;4997748;28;20054;-50
2021/10/19 05:26:03;;;;;;;6.65;2.15;;;;;;;16.30;82.00;99644.81;4994622;28;20104;-51
2021/10/19 05:28:30;;;;;;;6.88;2.55;;;;;;;16.32;81.23;99640.41;4995491;28;20129;-48
2021/10/19 05:30:56;;;;;;;4.03;2.08;;;;;;;16.34;81.87;99638.59;4997542;28;20549;-51
2021/10/19 05:33:23;;;;;;;4.53;2.30;;;;;;;16.34;81.75;99633.38;4995909;28;20046;-51
2021/10/19 05:35:51;;;;;;;6.32;3.22;;;;;;;16.35;81.30;99627.22;4992363;28;20160;-50
2021/10/19 05:38:18;;;;;;;4.70;2.35;;;;;;;16.35;81.70;99619.38;4991979;28;20050;-51
2021/10/19 05:40:45;;;;;;;5.63;2.63;;;;;;;16.38;81.55;99623.69;4995637;28;20053;-52
2021/10/19 05:43:11;;;;;;;6.13;2.42;;;;;;;16.38;82.21;99629.75;4994358;28;20566;-52
2021/10/19 05:45:38;;;;;;;5.18;2.58;;;;;;;16.39;81.82;99615.78;4988470;28;20061;-50
2021/10/19 05:48:05;;;;;;;5.35;2.10;;;;;;;16.41;81.12;99619.19;4998789;28;20058;-51
2021/10/19 05:50:33;;;;;;;4.82;1.90;;;;;;;16.40;81.95;99620.09;4989265;28;20675;-55
2021/10/19 05:53:00;;;;;;;5.13;2.03;;;;;;;16.41;82.03;99613.09;4992169;28;20054;-53
2021/10/19 05:55:26;;;;;;;5.15;2.00;;;;;;;16.42;81.41;99610.44;4992100;28;20071;-53
2021/10/19 05:57:54;;;;;;;5.60;2.33;;;;;;;16.42;81.26;99620.88;5002224;28;20121;-54
2021/10/19 06:00:36;;;;;;;3.25;1.55;;;;;;;16.43;82.07;99617.38;4992782;28;20117;-55
2021/10/19 06:03:03;;;;;;;3.40;1.83;;;;;;;16.43;81.33;99613.91;4998472;28;20086;-54
2021/10/19 06:05:30;;;;;;;4.07;2.05;;;;;;;16.43;81.68;99614.78;4995377;28;20439;-52
2021/10/19 06:07:56;;;;;;;3.35;1.98;;;;;;;16.42;81.95;99620.88;4993835;28;20073;-54
2021/10/19 06:10:23;;;;;;;3.33;1.95;;;;;;;16.46;81.72;99608.59;5001238;28;20517;-51
2021/10/19 06:12:49;;;;;;;2.83;1.55;;;;;;;16.42;81.98;99599.97;4991981;28;20054;-52
2021/10/19 06:15:17;;;;;;;2.90;1.58;;;;;;;16.43;81.81;99599.09;4997356;28;20043;-53
2021/10/19 06:17:44;;;;;;;4.35;2.30;;;;;;;16.47;81.31;99591.13;4991677;28;20065;-53
2021/10/19 06:20:11;;;;;;;3.38;1.75;;;;;;;16.47;82.17;99596.34;4992537;28;20116;-52
2021/10/19 06:22:39;;;;;;;2.67;1.73;;;;;;;16.47;82.00;99596.34;4996702;28;20042;-52
2021/10/19 06:25:07;;;;;;;4.55;2.35;;;;;;;16.47;82.26;99593.75;4995636;28;20058;-53
2021/10/19 06:27:33;;;;;;;4.28;1.95;;;;;;;16.48;82.66;99585.00;4993420;28;20054;-52
2021/10/19 06:30:01;;;;;;;3.75;2.08;;;;;;;16.46;82.31;99574.59;4991852;28;20050;-52
2021/10/19 06:32:28;;;;;;;4.35;2.35;;;;;;;16.47;81.77;99570.22;4992273;28;20050;-51
2021/10/19 06:34:54;;;;;;;3.03;1.63;;;;;;;16.48;82.38;99577.16;4991631;28;20058;-52
2021/10/19 06:37:21;;;;;;;3.60;2.20;;;;;;;16.50;82.35;99570.13;4993605;28;20046;-52
2021/10/19 06:39:48;;;;;;;2.92;1.77;;;;;;;16.49;82.62;99581.47;4988765;28;20046;-51
2021/10/19 06:42:15;;;;;;;3.47;1.75;;;;;;;16.50;82.08;99575.34;4992636;28;20046;-52
2021/10/19 06:44:41;;;;;;;2.92;1.50;;;;;;;16.53;81.56;99575.25;4998667;28;20050;-52
2021/10/19 06:47:12;;;;;;;3.15;1.63;;;;;;;16.54;81.47;99563.88;4982700;28;20050;-51
2021/10/19 06:49:38;;;;;;;1.80;1.40;;;;;;;16.56;82.33;99569.91;4990394;28;20105;-54
2021/10/19 06:52:05;;;;;;;2.80;1.52;;;;;;;16.57;82.01;99564.63;4993878;28;20072;-52
2021/10/19 06:54:32;;;;;;;2.53;1.42;;;;;;;16.59;81.88;99564.56;4993605;28;20468;-51
2021/10/19 06:56:58;;;;;;;2.20;1.40;;;;;;;16.60;81.88;99558.44;4989368;28;20046;-51
2021/10/19 06:59:25;;;;;;;2.30;1.33;;;;;;;16.64;81.81;99560.03;4991350;28;20058;-52
2021/10/19 07:01:51;;;;;;;3.33;1.70;;;;;;;16.65;82.36;99558.28;4990296;28;20047;-52
2021/10/19 07:04:21;;;;;;;3.13;1.25;;;;;;;16.66;81.43;99560.84;4990312;28;20534;-52
2021/10/19 07:06:47;;;;;;;3.13;2.10;;;;;;;16.67;81.69;99552.09;4990322;28;20050;-53
2021/10/19 07:09:14;;;;;;;3.13;1.80;;;;;;;16.70;81.43;99562.44;4994611;28;20054;-51
2021/10/19 07:11:40;;;;;;;2.60;1.52;;;;;;;16.73;81.39;99563.22;4993870;28;20351;-54
2021/10/19 07:14:07;;;;;;;3.40;1.20;;;;;;;16.75;82.32;99574.50;4991652;28;20104;-55
2021/10/19 07:16:33;;;;;;;2.65;1.55;;;;;;;16.77;81.25;99563.06;4990104;28;20403;-54
2021/10/19 07:19:00;;;;;;;1.73;1.25;;;;;;;16.78;81.65;99563.88;4985377;28;20463;-55
2021/10/19 07:21:27;;;;;;;1.55;1.00;;;;;;;16.80;82.25;99583.00;4989607;28;20058;-55
2021/10/19 07:23:53;;;;;;;4.18;1.95;;;;;;;16.80;81.74;99567.31;4993150;28;20477;-55
2021/10/19 07:26:20;;;;;;;1.95;1.13;;;;;;;16.83;81.97;99561.97;4988329;28;20050;-53
2021/10/19 07:28:46;;;;;;;1.20;0.90;;;;;;;16.86;82.03;99561.88;4996320;28;20053;-55
2021/10/19 07:31:13;;;;;;;2.45;0.75;;;;;;;16.87;81.79;99568.81;4989177;28;20505;-55
2021/10/19 07:33:40;;;;;;;1.58;0.95;;;;;;;16.92;82.05;99566.84;4990782;28;20057;-54
2021/10/19 07:36:06;;;;;;;2.47;1.23;;;;;;;16.91;81.80;99567.78;4991768;28;20038;-53
2021/10/19 07:38:33;;;;;;;2.42;1.42;;;;;;;16.93;81.78;99565.94;4991631;28;20443;-52
2021/10/19 07:40:59;;;;;;;3.03;1.48;;;;;;;16.93;82.00;99552.88;4998825;28;20084;-55
2021/10/19 07:43:27;;;;;;;3.50;2.03;;;;;;;16.94;81.46;99557.22;4991503;28;20068;-52
2021/10/19 07:45:54;;;;;;;1.75;0.77;;;;;;;16.94;81.93;99544.13;4990407;28;20054;-53
2021/10/19 07:48:21;;;;;;;0.95;0.70;;;;;;;16.98;82.23;99554.47;4985584;28;20140;-52
2021/10/19 07:50:48;;;;;;;1.90;1.13;;;;;;;17.02;81.45;99546.44;4999345;28;20120;-53
2021/10/19 07:53:16;;;;;;;2.50;1.38;;;;;;;17.04;81.50;99549.88;4985990;28;20043;-51
2021/10/19 07:55:43;;;;;;;2.83;1.55;;;;;;;17.07;82.04;99543.69;4989460;28;20084;-52
2021/10/19 07:58:10;;;;;;;2.95;1.30;;;;;;;17.10;82.29;99543.59;4991110;28;20058;-55
2021/10/19 08:00:37;;;;;;;2.45;1.08;;;;;;;17.13;81.55;99543.47;4988510;28;20105;-55
2021/10/19 08:03:04;;;;;;;2.30;1.23;;;;;;;17.16;82.15;99543.31;4991343;28;20053;-55
2021/10/19 08:05:31;;;;;;;2.38;1.20;;;;;;;17.17;82.13;99544.19;4984193;28;20077;-53
2021/10/19 08:08:14;;;;;;;1.45;0.82;;;;;;;17.18;81.52;99541.53;4991992;28;20386;-55
2021/10/19 08:10:44;;;;;;;1.52;0.85;;;;;;;17.23;81.29;99535.25;4989762;28;20610;-53
2021/10/19 08:13:11;;;;;;;;;;;;;;;17.12;81.38;99536.50;4981194;28;20046;-51
2021/10/19 08:15:38;;;;;;;4.93;1.55;;;;;;;17.24;81.15;99544.81;4984829;28;20374;-55
2021/10/19 08:18:06;;;;;;;3.55;1.63;;;;;;;17.26;80.87;99532.53;4988547;28;20281;-51
2021/10/19 08:20:34;;;;;;;5.05;2.03;;;;;;;17.30;80.98;99534.09;4985426;28;20132;-54
2021/10/19 08:23:00;;;;;;;3.85;1.63;;;;;;;17.31;80.83;99546.28;4985323;28;20624;-54
2021/10/19 08:25:28;;;;;;;5.07;1.73;;;;;;;17.32;80.95;99547.97;4987747;28;21715;-51
2021/10/19 08:27:56;;;;;;;5.80;2.65;;;;;;;17.34;81.54;99541.78;4988321;28;20100;-52
2021/10/19 08:30:23;;;;;;;7.97;3.45;;;;;;;17.39;80.61;99544.22;4990039;28;20077;-53
2021/10/19 08:32:50;;;;;;;6.32;2.63;;;;;;;17.41;81.07;99547.63;4986650;28;20310;-52
2021/10/19 08:35:19;;;;;;;6.60;2.75;;;;;;;17.44;80.82;99549.28;4989217;28;20054;-53
2021/10/19 08:37:46;;;;;;;6.03;2.78;;;;;;;17.46;81.15;99543.06;4988671;28;20146;-50
2021/10/19 08:40:14;;;;;;;7.63;3.08;;;;;;;17.49;80.99;99549.09;4988956;28;20112;-53
2021/10/19 08:42:44;;;;;;;6.13;2.72;;;;;;;17.49;80.62;99533.38;4986318;28;20050;-52
2021/10/19 08:45:14;;;;;;;6.60;2.55;;;;;;;17.52;79.65;99541.09;4989745;28;20061;-53
2021/10/19 08:47:43;;;;;;;6.88;2.58;;;;;;;17.54;80.45;99547.13;4990839;28;20479;-50
2021/10/19 08:50:12;;;;;;;7.35;3.53;;;;;;;17.57;80.30;99549.63;4986508;28;20046;-52
2021/10/19 08:52:39;;;;;;;8.05;2.72;;;;;;;17.59;79.69;99556.50;4986520;28;20104;-51
2021/10/19 08:55:06;;;;;;;10.60;3.95;;;;;;;17.61;80.39;99553.84;4991889;28;20104;-52
2021/10/19 08:57:33;;;;;;;8.55;3.30;;;;;;;17.62;80.22;99555.53;5005448;28;20058;-51
2021/10/19 09:00:00;;;;;;;9.63;3.90;;;;;;;17.66;79.51;99551.88;4994762;28;20084;-51
2021/10/19 09:02:44;;;;;;;7.10;3.72;;;;;;;17.65;79.08;99555.41;4992842;28;20109;-50
2021/10/19 09:05:22;;;;;;;10.50;3.67;;;;;;;17.69;79.04;99550.91;4990365;28;20045;-50
2021/10/19 09:07:59;;;;;;;8.70;3.42;;;;;;;17.67;79.51;99558.81;4997823;28;20078;-51
2021/10/19 09:10:30;;;;;;;8.07;4.00;;;;;;;17.73;79.36;99563.81;4990569;28;20121;-50
2021/10/19 09:12:58;;;;;;;10.10;3.90;;;;;;;17.73;78.54;99558.56;4991448;28;20050;-51
2021/10/19 09:15:28;;;;;;;11.32;4.32;;;;;;;17.73;79.08;99558.56;4992721;28;20050;-50
2021/10/19 09:18:05;;;;;;;11.20;4.82;;;;;;;17.71;78.36;99570.91;4993833;28;20108;-51
2021/10/19 09:20:36;;;;;;;12.55;4.10;;;;;;;17.72;77.75;99567.34;4982086;28;20105;-51
2021/10/19 09:23:04;;;;;;;12.75;4.13;;;;;;;17.67;77.34;99569.28;4986775;28;20046;-51
2021/10/19 09:25:36;;;;;;;12.18;4.97;;;;;;;17.66;77.55;99567.59;4993868;28;20176;-52
2021/10/19 09:28:05;;;;;;;13.80;5.00;;;;;;;17.68;78.47;99568.41;4991713;28;20097;-54
2021/10/19 09:30:37;;;;;;;15.57;5.40;;;;;;;17.66;77.50;99572.00;4992810;28;20054;-54
2021/10/19 09:33:06;;;;;;;15.20;6.35;;;;;;;17.63;77.80;99567.72;4990808;28;20105;-54
2021/10/19 09:35:34;;;;;;;;;;;;;;;17.50;77.26;99571.75;4992765;28;20046;-54
2021/10/19 09:38:05;;;;;;;14.73;6.07;;;;;;;17.59;76.62;99576.59;4993350;28;20420;-54
2021/10/19 09:40:39;;;;;;;14.18;5.85;;;;;;;17.52;76.10;99580.38;4996475;28;20046;-50
2021/10/19 09:43:09;;;;;;;15.98;7.20;;;;;;;17.50;76.35;99582.22;4989566;28;20105;-51
2021/10/19 09:45:40;;;;;;;14.95;6.63;;;;;;;17.45;76.33;99575.38;4995821;28;20046;-54
2021/10/19 09:48:11;;;;;;;16.65;7.18;;;;;;;17.41;76.17;99579.03;4997711;28;20069;-50
2021/10/19 09:50:39;;;;;;;18.08;6.88;;;;;;;17.37;76.33;99567.00;4986273;28;20407;-51
2021/10/19 09:53:05;;;;;;;15.68;6.95;;;;;;;17.37;75.76;99574.84;4996360;28;20117;-54
2021/10/19 09:55:32;;;;;;;14.70;5.70;;;;;;;17.37;76.36;99572.22;4990086;28;20108;-54
2021/10/19 09:57:59;;;;;;;18.42;8.35;;;;;;;17.35;75.94;99576.66;4988986;28;20050;-54
2021/10/19 10:00:27;;;;;;;18.83;7.57;;;;;;;17.36;75.68;99570.50;4991942;28;20058;-54
2021/10/19 10:02:54;;;;;;;20.35;8.10;;;;;;;17.38;75.12;99568.69;4992219;28;20069;-52
2021/10/19 10:05:21;;;;;;;19.83;8.75;;;;;;;17.42;75.43;99559.78;4996260;28;20495;-55
2021/10/19 10:07:48;;;;;;;21.80;8.20;;;;;;;17.42;75.36;99562.41;4993177;28;20053;-53
2021/10/19 10:10:16;;;;;;;20.63;9.18;;;;;;;17.50;74.59;99571.75;4994458;28;20667;-54
2021/10/19 10:12:49;;;;;;;18.10;7.70;;;;;;;17.54;74.96;99568.09;4990826;28;20050;-53
2021/10/19 10:15:26;;;;;;;19.17;8.88;;;;;;;17.57;74.16;99573.22;4993911;28;20513;-54
2021/10/19 10:18:00;;;;;;;25.45;9.20;;;;;;;17.64;74.75;99560.72;4992477;28;20129;-54
2021/10/19 10:20:31;;;;;;;18.67;8.07;;;;;;;17.69;74.45;99549.13;4986127;28;20058;-53
2021/10/19 10:22:58;;;;;;;20.10;7.85;;;;;;;17.68;73.14;99543.97;4995630;28;20482;-54
2021/10/19 10:25:36;;;;;;;22.00;9.02;;;;;;;17.65;72.96;99539.72;4987957;28;20050;-51
2021/10/19 10:28:10;;;;;;;20.85;8.98;;;;;;;17.71;73.51;99534.22;4993560;28;20042;-53
2021/10/19 10:30:37;;;;;;;24.13;8.27;;;;;;;17.76;72.82;99530.56;4988498;28;20136;-51
2021/10/19 10:33:06;;;;;;;19.50;8.60;;;;;;;17.76;73.18;99536.63;4990554;28;20050;-55
2021/10/19 10:35:32;;;;;;;20.48;9.10;;;;;;;17.72;73.12;99541.16;4984700;28;20091;-50
2021/10/19 10:38:03;;;;;;;19.73;9.55;;;;;;;17.83;73.66;99545.09;4991324;28;20050;-52
2021/10/19 10:40:34;;;;;;;17.98;7.47;;;;;;;17.88;73.27;99556.25;4988616;28;20802;-51
2021/10/19 10:43:19;;;;;;;20.25;8.25;;;;;;;17.87;72.90;99565.03;4989274;28;20635;-54
2021/10/19 10:46:00;;;;;;;20.17;9.98;;;;;;;17.91;73.49;99550.03;4988889;28;20042;-52
2021/10/19 10:48:28;;;;;;;20.10;8.60;;;;;;;17.95;72.33;99546.38;4984887;28;20120;-53
2021/10/19 10:50:54;;;;;;;22.92;8.77;;;;;;;17.99;72.58;99547.94;4991221;28;20046;-51
2021/10/19 10:53:21;;;;;;;24.50;8.45;;;;;;;17.98;72.98;99552.34;4988352;28;20058;-52
2021/10/19 10:55:51;;;;;;;22.02;8.40;;;;;;;17.97;72.52;99550.63;4993154;28;20101;-53
2021/10/19 10:58:28;;;;;;;19.25;8.45;;;;;;;17.96;72.90;99554.16;4989470;28;20047;-54
2021/10/19 11:00:55;;;;;;;24.45;9.65;;;;;;;17.97;72.86;99545.38;4992014;28;20049;-50
2021/10/19 11:03:21;;;;;;;22.10;9.50;;;;;;;17.96;72.76;99559.41;4991710;28;20046;-50
2021/10/19 11:05:53;;;;;;;18.80;9.20;;;;;;;17.92;72.57;99557.81;4989271;28;20050;-53
2021/10/19 11:08:24;;;;;;;18.90;8.45;;;;;;;17.91;72.65;99556.13;4990040;28;20109;-51
2021/10/19 11:11:12;;;;;;;21.20;8.98;;;;;;;17.85;72.60;99554.63;4986321;28;20444;-51
2021/10/19 11:13:58;;;;;;;19.48;9.75;;;;;;;17.81;72.15;99554.78;4982671;28;20479;-52
2021/10/19 11:16:39;;;;;;;22.88;9.02;;;;;;;17.88;72.62;99551.00;4988493;28;20129;-52
2021/10/19 11:19:19;;;;;;;21.10;9.63;;;;;;;17.86;72.49;99542.34;4993065;28;20130;-52
2021/10/19 11:21:50;;;;;;;21.08;9.48;;;;;;;17.90;72.53;99546.53;4981647;28;20097;-52
2021/10/19 11:24:18;;;;;;;24.05;9.95;;;;;;;17.90;72.00;99554.41;4987130;28;20046;-51
2021/10/19 11:26:45;;;;;;;20.23;9.70;;;;;;;17.88;72.57;99535.28;4989349;28;20108;-53
2021/10/19 11:29:12;;;;;;;23.83;10.05;;;;;;;17.80;72.78;99524.28;4991061;28;20101;-50
2021/10/19 11:31:39;;;;;;;38.78;15.25;;;;;;;17.85;73.65;99519.69;4999474;28;20112;-52
2021/10/19 11:34:07;;;;;;;27.17;10.38;;;;;;;17.85;72.66;99530.19;4993425;28;20038;-52
2021/10/19 11:36:35;;;;;;;23.20;10.45;;;;;;;17.84;73.38;99529.31;4988969;28;20458;-51